Latest Weather Observations for Viewbank

IDV60801

Issued at 5:32 pm EST Friday 1 July 2016 (issued every 30 minutes, with the page automatically refreshed every 10 minutes)

About weather observations | Map of weather stations | Latest weather observations for VIC | Other Formats
Station Details ID: 086068 Name: VIEWBANK Lat: -37.74 Lon: 145.10 Height: 66.1 m
Data from the previous 72 hours. | See also: Recent months at Viewbank
Date/Time
EST
Temp
°C
App
Temp
°C
Dew
Point
°C
Rel
Hum
%
Delta-T
°C
Wind Press
QNH
hPa
Press
MSL
hPa
Rain since
9am
mm
Dir  Spd
km/h
Gust
km/h
Spd
kts
Gust
kts
01/05:30pm 11.9 9.5 6.8 71 2.4 WNW 9 15 5 8 1021.9 1022.0 1.0
01/05:00pm 12.0 9.9 6.7 70 2.5 WNW 7 15 4 8 1021.6 1021.7 1.0
01/04:30pm 12.2 9.3 6.3 67 2.8 W 11 19 6 10 1021.4 1021.5 1.0
01/04:00pm 12.3 8.5 5.9 65 3.0 W 15 20 8 11 1021.0 1021.1 1.0
01/03:30pm 12.4 9.4 6.0 65 3.0 W 11 20 6 11 1020.9 1021.0 1.0
01/03:00pm 12.5 8.8 6.3 66 2.9 W 15 24 8 13 1020.7 1020.8 1.0
01/02:30pm 12.5 8.6 5.2 61 3.4 WSW 15 22 8 12 1020.6 1020.7 1.0
01/02:00pm 12.0 8.3 4.2 59 3.5 SSW 13 20 7 11 1020.5 1020.6 1.0
01/01:30pm 13.1 9.1 4.8 57 3.8 WSW 15 26 8 14 1020.4 1020.5 1.0
01/01:00pm 12.7 8.8 5.4 61 3.4 WSW 15 28 8 15 1020.4 1020.5 1.0
01/12:30pm 11.8 6.3 4.1 59 3.5 WSW 22 35 12 19 1020.4 1020.5 1.0
01/12:00pm 12.3 8.7 6.8 69 2.6 WSW 15 24 8 13 1020.5 1020.6 1.0
01/11:30am 11.4 7.2 7.3 76 2.0 WSW 19 33 10 18 1020.4 1020.5 1.0
01/11:00am 10.6 8.1 9.7 94 0.5 W 13 19 7 10 1020.4 1020.5 1.0
01/10:30am 9.8 7.7 9.8 100 0.0 W 11 19 6 10 1020.3 1020.4 1.0
01/10:00am 9.4 6.8 9.4 100 0.0 W 13 19 7 10 1020.0 1020.1 1.0
01/09:30am 9.2 6.6 9.2 100 0.0 WSW 13 26 7 14 1019.6 1019.7 0.6
01/09:00am 9.0 7.5 9.0 100 0.0 W 7 9 4 5 1019.1 1019.2 7.2
01/08:30am 8.6 6.6 8.6 100 0.0 WSW 9 15 5 8 1018.5 1018.6 7.0
01/08:00am 7.8 6.2 7.8 100 0.0 WSW 6 7 3 4 1018.0 1018.1 6.6
01/07:30am 7.8 6.2 7.8 100 0.0 WSW 6 9 3 5 1017.5 1017.6 6.6
01/07:00am 7.9 5.7 7.9 100 0.0 W 9 15 5 8 1016.8 1016.9 6.6
01/06:30am 7.8 6.5 7.8 100 0.0 WSW 4 7 2 4 1016.1 1016.2 6.6
01/06:00am 7.8 6.9 7.8 100 0.0 WSW 2 7 1 4 1015.6 1015.7 6.6
01/05:30am 8.0 6.2 8.0 100 0.0 W 7 11 4 6 1015.1 1015.1 6.6
01/05:00am 7.5 6.5 7.5 100 0.0 NW 2 9 1 5 1014.7 1014.7 6.6
01/04:30am 7.4 6.8 7.4 100 0.0 CALM 0 0 0 0 1014.3 1014.3 6.4
01/04:00am 7.5 6.9 7.5 100 0.0 CALM 0 7 0 4 1013.9 1013.9 5.4
01/03:30am 7.2 5.8 7.2 100 0.0 NNW 4 7 2 4 1013.5 1013.5 5.0
01/03:00am 6.9 6.2 6.8 99 0.0 CALM 0 0 0 0 1013.0 1013.0 4.8
01/02:30am 7.0 6.3 6.9 99 0.0 CALM 0 6 0 3 1012.4 1012.4 4.8
01/02:00am 7.0 5.9 6.9 99 0.0 N 2 7 1 4 1011.8 1011.9 4.8
01/01:30am 7.0 5.5 6.9 99 0.0 N 4 9 2 5 1010.9 1011.0 4.8
01/01:00am 7.3 5.2 6.6 95 0.3 N 7 15 4 8 1010.6 1010.7 4.8
01/12:30am 7.4 4.9 6.5 94 0.4 N 9 15 5 8 1009.9 1010.0 4.8
01/12:00am 7.6 4.6 6.1 90 0.7 N 11 17 6 9 1010.1 1010.2 4.8
 
Date/Time
EST
Temp
°C
App
Temp
°C
Dew
Point
°C
Rel
Hum
%
Delta-T
°C
Wind Press
QNH
hPa
Press
MSL
hPa
Rain since
9am
mm
Dir  Spd
km/h
Gust
km/h
Spd
kts
Gust
kts
30/11:30pm 7.9 4.9 6.0 88 0.9 N 11 19 6 10 1009.7 1009.8 4.8
30/11:00pm 8.1 4.7 5.9 86 1.0 N 13 28 7 15 1009.5 1009.6 4.8
30/10:30pm 7.6 5.6 6.4 92 0.5 NNE 6 11 3 6 1009.2 1009.3 4.8
30/10:00pm 7.4 4.4 6.2 92 0.5 N 11 19 6 10 1008.7 1008.8 4.8
30/09:30pm 6.7 4.0 5.5 92 0.5 N 9 13 5 7 1008.8 1008.9 4.8
30/09:00pm 7.1 4.4 5.4 89 0.8 N 9 15 5 8 1008.7 1008.8 4.8
30/08:30pm 7.4 3.9 5.4 87 0.9 N 13 17 7 9 1008.6 1008.7 4.8
30/08:00pm 7.4 3.6 5.9 90 0.7 N 15 20 8 11 1008.5 1008.6 4.8
30/07:30pm 7.2 5.4 7.1 99 0.0 NNE 6 11 3 6 1008.6 1008.7 4.8
30/07:00pm 7.9 5.1 7.1 95 0.4 N 11 15 6 8 1008.5 1008.6 4.8
30/06:30pm 7.8 4.7 7.4 97 0.2 N 13 17 7 9 1008.1 1008.2 4.8
30/06:00pm 6.8 5.3 6.7 99 0.0 N 4 9 2 5 1007.8 1007.9 4.8
30/05:30pm 6.9 4.8 6.8 99 0.0 N 7 9 4 5 1007.5 1007.6 4.8
30/05:00pm 7.0 1.4 5.5 90 0.7 W 24 46 13 25 1007.5 1007.6 3.6
30/04:57pm 7.9 3.7 7.5 97 0.2 WNW 19 46 10 25 1007.6 1007.7 2.6
30/04:30pm 9.9 5.9 6.8 81 1.5 N 17 33 9 18 1006.6 1006.7 0.0
30/04:00pm 10.1 5.0 6.1 76 1.9 N 22 35 12 19 1006.4 1006.5 0.0
30/03:30pm 10.1 5.1 6.3 77 1.8 NNE 22 35 12 19 1006.4 1006.5 0.0
30/03:00pm 10.5 4.2 5.9 73 2.1 N 28 43 15 23 1007.1 1007.2 0.0
30/02:35pm 10.5 4.2 5.7 72 2.2 NNE 28 56 15 30 1006.8 1006.9 0.0
30/02:30pm 10.6 5.0 5.6 71 2.3 NNE 24 52 13 28 1006.9 1007.0 0.0
30/02:01pm 10.4 4.2 6.0 74 2.0 N 28 46 15 25 1007.2 1007.3 0.0
30/02:00pm 10.3 3.7 5.9 74 2.0 N 30 46 16 25 1007.1 1007.2 0.0
30/01:30pm 10.2 4.0 6.0 75 1.9 N 28 52 15 28 1007.3 1007.4 0.0
30/01:11pm 10.8 4.4 5.3 69 2.5 N 28 48 15 26 1007.8 1007.9 0.0
30/01:00pm 11.0 5.1 5.7 70 2.5 NNE 26 46 14 25 1008.2 1008.3 0.0
30/12:30pm 11.2 4.1 5.7 69 2.6 NNE 32 54 17 29 1008.8 1008.9 0.0
30/12:00pm 11.0 3.9 5.3 68 2.6 N 32 61 17 33 1009.5 1009.6 0.0
30/11:30am 11.1 4.7 5.2 67 2.7 N 28 48 15 26 1010.1 1010.2 0.0
30/11:00am 10.9 3.7 5.0 67 2.7 N 32 54 17 29 1010.7 1010.8 0.0
30/10:30am 10.9 4.0 4.8 66 2.8 N 30 48 16 26 1011.0 1011.1 0.0
30/10:11am 10.8 4.3 4.7 66 2.8 N 28 57 15 31 1011.2 1011.3 0.0
30/10:00am 10.7 4.6 4.8 67 2.7 N 26 44 14 24 1011.3 1011.4 0.0
30/09:30am 10.5 4.7 4.6 67 2.7 NNE 24 43 13 23 1011.3 1011.4 0.0
30/09:00am 10.3 3.8 4.7 68 2.5 NNE 28 50 15 27 1011.1 1011.2 0.0
30/08:43am 10.3 3.8 4.5 67 2.6 NNE 28 54 15 29 1011.7 1011.8 0.0
30/08:30am 10.2 4.8 4.6 68 2.5 NNE 22 44 12 24 1011.9 1012.0 0.0
30/08:00am 10.4 5.0 4.5 67 2.6 NNE 22 33 12 18 1012.6 1012.6 0.0
30/07:30am 10.7 5.9 4.4 65 2.8 N 19 43 10 23 1012.9 1012.9 0.0
30/07:00am 11.2 6.6 3.7 60 3.3 NNE 17 30 9 16 1013.0 1013.0 0.0
30/06:30am 11.1 6.8 3.4 59 3.4 NNE 15 35 8 19 1013.0 1013.0 0.0
30/06:00am 11.1 5.9 3.6 60 3.3 NNE 20 44 11 24 1013.3 1013.3 0.0
30/05:30am 11.0 5.1 4.0 62 3.1 N 24 48 13 26 1013.8 1013.8 0.0
30/05:00am 10.9 6.0 4.1 63 3.0 NNE 19 41 10 22 1014.0 1014.0 0.0
30/04:30am 10.8 6.3 4.0 63 3.0 NNE 17 35 9 19 1014.3 1014.3 0.0
30/04:00am 10.6 5.7 4.3 65 2.8 NNE 19 43 10 23 1014.9 1014.9 0.0
30/03:30am 10.7 5.3 4.4 65 2.8 N 22 37 12 20 1015.7 1015.8 0.0
30/03:00am 10.5 5.7 4.6 67 2.7 N 19 32 10 17 1016.6 1016.7 0.0
30/02:30am 10.7 5.8 5.3 69 2.5 N 20 37 11 20 1017.0 1017.1 0.0
30/02:00am 11.0 5.0 5.5 69 2.5 N 26 43 14 23 1017.4 1017.5 0.0
30/01:30am 11.1 5.8 5.2 67 2.7 N 22 39 12 21 1017.3 1017.4 0.0
30/01:14am 11.4 5.0 5.1 65 2.9 N 28 46 15 25 1017.6 1017.7 0.0
30/01:00am 11.3 5.7 5.2 66 2.8 N 24 35 13 19 1017.8 1017.9 0.0
30/12:30am 10.9 6.3 5.7 70 2.4 N 19 33 10 18 1018.5 1018.6 0.0
30/12:15am 11.2 4.9 5.7 69 2.6 N 28 46 15 25 1018.7 1018.8 0.0
30/12:00am 11.3 6.5 5.8 69 2.6 N 20 39 11 21 1018.8 1018.9 0.0
 
Date/Time
EST
Temp
°C
App
Temp
°C
Dew
Point
°C
Rel
Hum
%
Delta-T
°C
Wind Press
QNH
hPa
Press
MSL
hPa
Rain since
9am
mm
Dir  Spd
km/h
Gust
km/h
Spd
kts
Gust
kts
29/11:30pm 11.6 6.8 5.7 67 2.7 N 20 43 11 23 1018.8 1018.9 0.0
29/11:00pm 11.6 6.4 5.5 66 2.8 N 22 41 12 22 1018.7 1018.8 0.0
29/10:30pm 11.6 7.4 5.5 66 2.8 N 17 32 9 17 1018.7 1018.8 0.0
29/10:00pm 11.5 7.7 5.6 67 2.7 NNE 15 35 8 19 1018.7 1018.8 0.0
29/09:30pm 11.4 8.7 5.7 68 2.7 NNE 9 17 5 9 1019.2 1019.3 0.0
29/09:00pm 11.7 7.5 5.8 67 2.7 NNE 17 39 9 21 1019.4 1019.5 0.0
29/08:30pm 11.1 8.5 6.3 72 2.3 NNE 9 17 5 9 1019.8 1019.9 0.0
29/08:00pm 10.7 8.5 6.1 73 2.1 NE 7 15 4 8 1020.2 1020.3 0.0
29/07:30pm 11.0 8.8 6.2 72 2.2 NE 7 13 4 7 1020.6 1020.7 0.0
29/07:00pm 10.8 8.2 6.2 73 2.1 NE 9 17 5 9 1020.8 1020.9 0.0
29/06:30pm 10.8 8.6 6.0 72 2.2 NE 7 15 4 8 1021.1 1021.2 0.0
29/06:00pm 10.7 8.5 6.1 73 2.1 ENE 7 13 4 7 1021.3 1021.4 0.0
29/05:30pm 11.6 8.9 5.7 67 2.7 SSE 9 19 5 10 1021.6 1021.7 0.0
29/05:00pm 12.2 9.2 5.8 65 3.0 SE 11 26 6 14 1021.9 1022.0 0.0
29/04:30pm 12.9 9.5 5.8 62 3.3 SE 13 28 7 15 1022.4 1022.5 0.0
29/04:00pm 13.6 9.0 5.7 59 3.7 E 19 37 10 20 1022.7 1022.8 0.0
29/03:30pm 13.3 9.2 6.2 62 3.4 SE 17 37 9 20 1022.8 1022.9 0.0
29/03:00pm 13.8 9.3 5.9 59 3.7 NNE 19 30 10 16 1022.8 1022.9 0.0
29/02:30pm 14.1 10.3 7.4 64 3.3 N 17 32 9 17 1023.1 1023.2 0.0
29/02:00pm 14.3 11.0 8.0 66 3.1 N 15 30 8 16 1023.6 1023.7 0.0
29/01:30pm 13.9 10.6 7.9 67 3.0 NE 15 24 8 13 1024.0 1024.1 0.0
29/01:00pm 14.2 11.8 8.6 69 2.8 ESE 11 20 6 11 1024.6 1024.7 0.0
29/12:30pm 14.0 11.3 8.8 71 2.6 NNE 13 24 7 13 1025.1 1025.2 0.0
29/12:00pm 13.6 10.9 8.9 73 2.4 NNE 13 22 7 12 1025.7 1025.8 0.0
29/11:30am 13.2 9.1 7.9 70 2.6 N 19 26 10 14 1026.3 1026.4 0.0
29/11:00am 13.2 10.3 8.3 72 2.4 N 13 22 7 12 1026.8 1026.9 0.0
29/10:30am 12.9 10.4 8.4 74 2.2 N 11 20 6 11 1027.0 1027.1 0.0
29/10:00am 12.1 8.7 9.1 82 1.5 NNE 17 24 9 13 1027.0 1027.1 0.0
29/09:30am 11.4 8.4 9.1 86 1.2 N 15 26 8 14 1026.7 1026.8 0.0
29/09:00am 10.4 7.0 9.3 93 0.5 N 17 22 9 12 1026.7 1026.8 0.4
29/08:30am 9.5 6.9 9.4 99 0.0 NNE 13 20 7 11 1026.7 1026.8 0.4
29/08:00am 8.8 6.4 8.7 99 0.0 NNE 11 19 6 10 1026.6 1026.7 0.4
29/07:30am 8.6 6.2 8.5 99 0.0 NNE 11 15 6 8 1026.5 1026.6 0.4
29/07:00am 9.0 6.3 8.9 99 0.0 NNE 13 19 7 10 1026.4 1026.5 0.4
29/06:30am 9.2 6.2 9.1 99 0.0 N 15 19 8 10 1026.3 1026.4 0.4
29/06:00am 9.4 6.4 9.3 99 0.0 N 15 20 8 11 1026.0 1026.1 0.4
29/05:30am 8.5 7.0 8.5 100 0.0 NE 6 13 3 7 1026.0 1026.1 0.4
29/05:00am 8.7 7.2 8.6 99 0.0 NE 6 9 3 5 1025.9 1026.0 0.4
29/04:30am 9.2 8.3 9.1 99 0.0 NE 4 6 2 3 1025.8 1025.9 0.4
29/04:00am 9.4 8.1 9.3 99 0.0 ENE 6 9 3 5 1025.8 1025.9 0.4
29/03:30am 9.8 8.4 9.7 99 0.1 NNE 7 13 4 7 1025.8 1025.9 0.4
29/03:00am 10.0 7.2 9.9 99 0.1 NNE 15 24 8 13 1025.6 1025.7 0.4
29/02:30am 10.0 7.6 9.9 99 0.1 NNE 13 20 7 11 1025.7 1025.8 0.4
29/02:00am 10.6 8.2 10.0 96 0.3 N 13 19 7 10 1025.9 1026.0 0.4
29/01:30am 10.5 9.5 10.2 98 0.2 NNE 6 9 3 5 1025.9 1026.0 0.4
29/01:00am 10.1 9.0 10.0 99 0.1 NE 6 7 3 4 1026.0 1026.1 0.4
29/12:30am 10.3 9.0 10.1 99 0.1 ENE 7 11 4 6 1026.1 1026.2 0.4
29/12:00am 10.4 9.3 9.9 97 0.3 NE 6 9 3 5 1026.2 1026.3 0.4
 
Date/Time
EST
Temp
°C
App
Temp
°C
Dew
Point
°C
Rel
Hum
%
Delta-T
°C
Wind Press
QNH
hPa
Press
MSL
hPa
Rain since
9am
mm
Dir  Spd
km/h
Gust
km/h
Spd
kts
Gust
kts
28/11:30pm 10.5 9.2 10.0 97 0.3 NE 7 19 4 10 1026.2 1026.3 0.4
28/11:00pm 10.3 9.2 10.1 99 0.1 NE 6 13 3 7 1026.4 1026.5 0.4
28/10:30pm 10.2 8.6 10.1 99 0.1 E 9 15 5 8 1026.5 1026.6 0.4
28/10:00pm 10.3 9.2 10.1 99 0.1 NE 6 9 3 5 1026.5 1026.6 0.2
28/09:30pm 10.3 9.0 10.1 99 0.1 NE 7 13 4 7 1026.4 1026.5 0.2
28/09:00pm 10.4 8.0 10.2 99 0.1 NNE 13 20 7 11 1026.1 1026.2 0.0
28/08:30pm 10.6 7.9 9.0 90 0.8 NNE 13 22 7 12 1026.2 1026.3 0.0
28/08:00pm 10.6 8.2 8.5 87 1.0 NNE 11 20 6 11 1026.0 1026.1 0.0
28/07:30pm 10.7 9.1 8.6 87 1.0 NE 7 15 4 8 1025.9 1026.0 0.0
28/07:00pm 10.7 9.0 8.5 86 1.1 NNE 7 20 4 11 1025.8 1025.9 0.0
28/06:30pm 10.6 9.0 8.7 88 0.9 NNE 7 11 4 6 1025.6 1025.7 0.0
28/06:00pm 10.9 8.4 8.3 84 1.3 NE 11 20 6 11 1025.1 1025.2 0.0

Other Formats:

Comma delimited format used in spreadsheet applications
http://www.bom.gov.au/fwo/IDV60801/IDV60801.95874.axf

JavaScript Object Notation format (JSON) in row-major order
http://www.bom.gov.au/fwo/IDV60801/IDV60801.95874.json